Khabarovsk-Novy Airport
UHHH : now visible

Airfield :











YOU CAN JOIN US ON...

 
LOGIN :

Register | Disclaimer

   EN    FR    IT 

 









Legend :    VFR   Marginal VFR   IFR   Intensive IFR   Very Intensive IFR
Visi :
Ceiling :
>= 8 km
>= 3000ft
5 to 8 km
1000 to 3000 ft
1500m to 5 km
500 to 1000 ft
800 to 1500m
200 to 500 ft
< 800m
< 200 ft
Symbols :   Thunderstorms  Fog  Heavy snow  Heavy precipitations  Wind > 20 kt






- Airport Elevation : 244 ft
- IATA code : KHV


UHHH - Khabarovsk-Novy

CURRENT METAR :
  • 302230Z 24008MPS CAVOK M15/M19 Q1025 R23L/490150 NOSIG RMK QFE762/1016

EXPIRED METARs :
  • 302200Z 23007MPS CAVOK M15/M19 Q1025 R23L/490150 NOSIG RMK QFE762/1016
  • 302130Z 23007MPS CAVOK M15/M19 Q1025 R23L/490150 NOSIG RMK QFE762/1016
  • 302100Z 24007MPS CAVOK M14/M19 Q1025 R23L/490150 NOSIG RMK QFE762/1016
  • 302030Z 25008MPS CAVOK M14/M19 Q1024 R23L/490150 NOSIG RMK QFE762/1016
  • 302000Z 25008MPS CAVOK M14/M18 Q1024 R23L/490150 NOSIG RMK QFE762/1016

TAF TAF UHHH
Valid from the 30 at 21:00 until the 02 at 03:00 UTC


301947Z 3021/0203 26008MPS CAVOK
TEMPO 3021/0109 26007G12MPS
UHHH FIR / Asia



MET'MAP, your aeronautical weather chart ! - Copyright ORBIFLY December 2007 - Disclaimer

ORBIFLY MET'MAP TEAM :

Programming & Development : Alexandra Zaïnal
Concept & original design : Baudouin d'Aumeries
Assistance for programming : Marc-Olivier Méhu
Technical & hardware support : Manuel Goepfert

Contact : metmap@orbifly.com




SOURCES & CREDITS :

   NOAA       Earth
Advisory